Time;durP1;ratioP1;P1;durP2;ratioP2;P2;SDS_P1;SDS_P2;PMS_P1;PMS_P2;Temp;Humidity;BMP_temperature;BMP_pressure;BME280_temperature;BME280_humidity;BME280_pressure;Samples;Min_cycle;Max_cycle;Signal;HPM_P1;HPM_P2
2022/09/19 00:01:10;;;;;;;13.98;3.78;;;9.00;99.90;;;;;;4947651;28;20050;-79
2022/09/19 00:03:36;;;;;;;21.17;3.97;;;8.90;99.90;;;;;;4962607;28;20035;-80
2022/09/19 00:06:02;;;;;;;13.57;3.28;;;9.00;99.90;;;;;;4945013;28;20515;-79
2022/09/19 00:08:27;;;;;;;14.32;3.78;;;8.90;99.90;;;;;;4944429;28;20023;-80
2022/09/19 00:10:53;;;;;;;15.95;3.72;;;8.90;99.90;;;;;;4945893;28;20062;-80
2022/09/19 00:13:18;;;;;;;22.83;3.58;;;9.00;99.90;;;;;;4968659;28;20023;-79
2022/09/19 00:15:48;;;;;;;14.45;2.42;;;9.00;99.90;;;;;;4959354;28;20391;-79
2022/09/19 00:18:14;;;;;;;22.13;4.28;;;9.00;99.90;;;;;;4961499;28;20042;-80
2022/09/19 00:20:41;;;;;;;13.20;3.25;;;9.00;99.90;;;;;;4944455;28;20562;-80
2022/09/19 00:26:19;;;;;;;23.60;3.00;;;9.00;99.90;;;;;;4965052;28;20069;-79
2022/09/19 00:28:45;;;;;;;10.60;2.95;;;9.00;99.90;;;;;;4946382;28;20575;-79
2022/09/19 00:31:19;;;;;;;15.15;2.75;;;9.00;99.90;;;;;;4932644;28;20169;-79
2022/09/19 00:33:46;;;;;;;21.40;3.70;;;9.00;99.90;;;;;;4931594;28;20034;-80
2022/09/19 00:36:12;;;;;;;19.27;3.50;;;9.00;99.90;;;;;;4929570;28;20032;-79
2022/09/19 00:38:37;;;;;;;10.82;2.85;;;9.00;99.90;;;;;;4948101;28;20046;-79
2022/09/19 00:41:03;;;;;;;22.13;4.13;;;9.00;99.90;;;;;;4946956;28;20494;-79
2022/09/19 00:43:44;;;;;;;18.27;2.80;;;9.00;99.90;;;;;;4945823;28;20035;-79
2022/09/19 00:46:09;;;;;;;15.95;2.75;;;9.00;99.90;;;;;;4952011;28;20147;-79
2022/09/19 00:48:35;;;;;;;15.27;2.80;;;9.00;99.90;;;;;;4932371;28;20046;-77
2022/09/19 00:51:04;;;;;;;17.80;4.45;;;9.10;99.90;;;;;;4928778;28;20032;-77
2022/09/19 00:53:30;;;;;;;7.53;1.98;;;9.10;99.90;;;;;;4960311;28;20091;-79
2022/09/19 00:55:56;;;;;;;11.20;2.72;;;9.10;99.90;;;;;;4945998;28;20046;-79
2022/09/19 00:58:28;;;;;;;16.83;2.90;;;9.10;99.90;;;;;;4947046;28;20046;-79
2022/09/19 01:00:55;;;;;;;8.93;1.88;;;9.10;99.90;;;;;;4964776;28;20510;-80
2022/09/19 01:03:24;;;;;;;8.98;2.63;;;9.10;99.90;;;;;;4966238;28;20034;-79
2022/09/19 01:06:18;;;;;;;17.98;3.38;;;9.10;99.90;;;;;;4955469;28;20400;-79
2022/09/19 01:09:13;;;;;;;18.10;2.97;;;9.10;99.90;;;;;;4943790;28;20147;-80
2022/09/19 01:11:49;;;;;;;21.85;3.80;;;9.10;99.90;;;;;;4924170;28;20089;-78
2022/09/19 01:14:46;;;;;;;16.00;3.00;;;9.10;99.90;;;;;;4959807;28;20557;-78
2022/09/19 01:17:20;;;;;;;14.80;2.60;;;9.10;99.90;;;;;;4962664;28;20380;-77
2022/09/19 01:20:09;;;;;;;11.75;2.30;;;9.10;99.90;;;;;;4961911;28;20150;-78
2022/09/19 01:22:48;;;;;;;10.13;3.10;;;9.10;99.90;;;;;;4959311;28;20027;-78
2022/09/19 01:25:46;;;;;;;18.17;2.90;;;9.10;99.90;;;;;;4960165;28;20031;-77
2022/09/19 01:28:34;;;;;;;14.25;2.65;;;9.10;99.90;;;;;;4963114;28;20621;-77
2022/09/19 01:31:21;;;;;;;9.20;2.42;;;9.10;99.90;;;;;;4931717;28;20031;-78
2022/09/19 01:34:24;;;;;;;10.68;2.28;;;9.10;99.90;;;;;;4961666;28;20027;-78
2022/09/19 01:36:56;;;;;;;21.52;3.28;;;9.10;99.90;;;;;;4947586;28;20494;-78
2022/09/19 01:39:23;;;;;;;17.15;3.45;;;9.10;99.90;;;;;;4941426;28;20571;-78
2022/09/19 01:41:50;;;;;;;16.10;3.47;;;9.10;99.90;;;;;;4962687;28;20554;-79
2022/09/19 01:44:18;;;;;;;17.02;2.65;;;9.20;99.90;;;;;;4959886;28;20478;-80
2022/09/19 01:46:52;;;;;;;19.98;3.40;;;9.10;99.90;;;;;;4959686;28;20138;-80
2022/09/19 01:50:11;;;;;;;11.90;3.08;;;9.20;99.90;;;;;;4958995;28;20390;-80
2022/09/19 01:52:46;;;;;;;23.13;3.47;;;9.20;99.90;;;;;;4945424;29;20035;-80
2022/09/19 01:55:31;;;;;;;17.63;4.00;;;9.10;99.90;;;;;;4944330;29;20050;-80
2022/09/19 01:58:15;;;;;;;20.15;3.63;;;9.10;99.90;;;;;;4946272;28;20077;-80
2022/09/19 02:01:02;;;;;;;23.73;3.70;;;9.10;99.90;;;;;;4962966;28;20071;-80
2022/09/19 02:03:47;;;;;;;20.63;5.53;;;9.10;99.90;;;;;;4959599;28;20034;-79
2022/09/19 02:06:14;;;;;;;17.02;3.10;;;9.10;99.90;;;;;;4954667;28;20071;-80
2022/09/19 02:08:59;;;;;;;14.23;2.70;;;8.70;99.90;;;;;;4958394;28;20106;-80
2022/09/19 02:11:25;;;;;;;17.40;2.80;;;9.10;99.90;;;;;;4956976;28;20031;-80
2022/09/19 02:13:56;;;;;;;10.25;2.67;;;9.00;99.90;;;;;;4964331;28;20101;-80
2022/09/19 02:16:30;;;;;;;23.52;4.15;;;9.00;99.90;;;;;;4942872;28;20114;-80
2022/09/19 02:19:01;;;;;;;20.50;4.63;;;8.90;99.90;;;;;;4939664;28;20471;-80
2022/09/19 02:21:32;;;;;;;12.85;2.85;;;8.80;99.90;;;;;;4928259;28;20035;-80
2022/09/19 02:24:05;;;;;;;21.00;2.85;;;8.80;99.90;;;;;;4942095;28;20514;-79
2022/09/19 02:26:31;;;;;;;19.02;3.05;;;8.80;99.90;;;;;;4963307;28;20027;-79
2022/09/19 02:28:57;;;;;;;11.23;3.35;;;8.80;99.90;;;;;;4958122;28;20380;-79
2022/09/19 02:31:27;;;;;;;14.50;2.45;;;8.70;99.90;;;;;;4963084;28;20058;-78
2022/09/19 02:33:58;;;;;;;16.80;3.20;;;8.80;99.90;;;;;;4945027;28;20058;-78
2022/09/19 02:36:41;;;;;;;19.77;2.95;;;8.70;99.90;;;;;;4947265;28;20057;-79
2022/09/19 02:39:20;;;;;;;13.52;2.28;;;8.70;99.90;;;;;;4961057;28;20035;-78
2022/09/19 02:42:16;;;;;;;17.55;3.42;;;8.70;99.90;;;;;;4948159;28;20499;-78
2022/09/19 02:45:11;;;;;;;9.82;2.10;;;8.70;99.90;;;;;;4940445;28;20039;-79
2022/09/19 02:48:03;;;;;;;18.17;3.33;;;8.70;99.90;;;;;;4961164;28;20548;-78
2022/09/19 02:50:32;;;;;;;27.70;3.50;;;8.70;99.90;;;;;;4959845;28;20442;-78
2022/09/19 02:52:58;;;;;;;23.90;3.30;;;8.60;99.90;;;;;;4965497;28;20035;-78
2022/09/19 02:55:26;;;;;;;15.55;2.42;;;8.60;99.90;;;;;;4962281;28;20046;-79
2022/09/19 02:57:54;;;;;;;26.17;3.25;;;8.60;99.90;;;;;;4961081;28;20031;-79
2022/09/19 03:00:21;;;;;;;15.90;2.90;;;8.60;99.90;;;;;;4940788;28;20399;-79
2022/09/19 03:02:54;;;;;;;16.27;2.92;;;8.60;99.90;;;;;;4939736;28;20028;-78
2022/09/19 03:05:20;;;;;;;20.05;3.50;;;8.60;99.90;;;;;;4948919;28;20058;-79
2022/09/19 03:07:48;;;;;;;19.38;3.50;;;8.60;99.90;;;;;;4928228;28;20447;-78
2022/09/19 03:10:17;;;;;;;20.52;5.63;;;8.60;99.90;;;;;;4947024;28;20053;-77
2022/09/19 03:12:57;;;;;;;21.15;3.45;;;8.60;99.90;;;;;;4942027;28;20126;-77
2022/09/19 03:15:51;;;;;;;18.38;4.15;;;8.60;99.90;;;;;;4946344;28;20034;-77
2022/09/19 03:18:17;;;;;;;15.35;2.88;;;8.60;99.90;;;;;;4960306;28;20053;-77
2022/09/19 03:20:47;;;;;;;20.23;3.55;;;8.50;99.90;;;;;;4942153;28;20074;-77
2022/09/19 03:23:15;;;;;;;18.60;3.67;;;8.60;99.90;;;;;;4946863;28;20093;-77
2022/09/19 03:25:40;;;;;;;17.05;2.72;;;8.60;99.90;;;;;;4933201;28;20657;-77
2022/09/19 03:28:06;;;;;;;21.25;4.32;;;8.60;99.90;;;;;;4956071;28;20031;-77
2022/09/19 03:30:32;;;;;;;13.80;4.28;;;8.60;99.90;;;;;;4955752;28;20039;-77
2022/09/19 03:32:59;;;;;;;17.70;3.20;;;8.60;99.90;;;;;;4959878;28;20034;-77
2022/09/19 03:35:25;;;;;;;13.02;3.10;;;8.70;99.90;;;;;;4925420;28;20047;-77
2022/09/19 03:37:51;;;;;;;17.98;3.42;;;8.70;99.90;;;;;;4947437;28;20041;-77
2022/09/19 03:40:16;;;;;;;19.58;3.03;;;8.70;99.90;;;;;;4926664;28;20035;-77
2022/09/19 03:42:45;;;;;;;13.57;2.78;;;8.90;99.90;;;;;;4939759;28;20035;-77
2022/09/19 03:45:11;;;;;;;14.52;2.80;;;8.80;99.90;;;;;;4925120;28;20046;-77
2022/09/19 03:47:37;;;;;;;16.95;2.53;;;8.80;99.90;;;;;;4924081;28;20046;-77
2022/09/19 03:50:03;;;;;;;17.23;2.67;;;8.90;99.90;;;;;;4933360;28;20376;-77
2022/09/19 03:52:29;;;;;;;20.50;3.15;;;8.90;99.90;;;;;;4947887;28;20443;-78
2022/09/19 03:54:58;;;;;;;13.88;2.72;;;8.80;99.90;;;;;;4926966;28;20066;-77
2022/09/19 03:57:23;;;;;;;13.38;2.30;;;8.80;99.90;;;;;;4946974;28;20035;-77
2022/09/19 03:59:49;;;;;;;11.20;2.75;;;8.80;99.90;;;;;;4929686;28;20077;-77
2022/09/19 04:02:14;;;;;;;13.98;2.67;;;8.80;99.90;;;;;;4957706;28;20049;-77
2022/09/19 04:04:40;;;;;;;16.45;3.20;;;8.70;99.90;;;;;;4945791;28;20483;-78
2022/09/19 04:07:05;;;;;;;18.08;3.15;;;8.70;99.90;;;;;;4927194;28;20399;-77
2022/09/19 04:09:31;;;;;;;16.80;4.47;;;8.60;99.90;;;;;;4939552;28;20456;-78
2022/09/19 04:11:57;;;;;;;18.83;3.33;;;8.60;99.90;;;;;;4942907;28;20039;-78
2022/09/19 04:14:23;;;;;;;12.75;2.47;;;8.60;99.90;;;;;;4961872;28;20058;-77
2022/09/19 04:16:49;;;;;;;21.38;3.40;;;8.50;99.90;;;;;;4927078;28;20062;-78
2022/09/19 04:19:15;;;;;;;16.85;3.67;;;8.50;99.90;;;;;;4943588;28;20478;-78
2022/09/19 04:21:41;;;;;;;19.35;3.60;;;8.60;99.90;;;;;;4927342;28;20031;-77
2022/09/19 04:24:10;;;;;;;13.25;2.35;;;8.60;99.90;;;;;;4944890;28;20035;-78
2022/09/19 04:26:36;;;;;;;22.70;4.45;;;8.60;99.90;;;;;;4941547;28;20446;-77
2022/09/19 04:29:02;;;;;;;18.50;4.20;;;8.60;99.90;;;;;;4959121;28;20038;-78
2022/09/19 04:31:35;;;;;;;16.48;4.22;;;8.60;99.90;;;;;;4942151;28;20027;-78
2022/09/19 04:34:02;;;;;;;12.73;2.72;;;8.50;99.90;;;;;;4947800;28;20058;-77
2022/09/19 04:36:31;;;;;;;11.85;3.13;;;8.60;99.90;;;;;;4958647;28;20700;-78
2022/09/19 04:38:57;;;;;;;17.65;3.10;;;8.60;99.90;;;;;;4942790;28;20131;-77
2022/09/19 04:41:22;;;;;;;15.05;2.95;;;8.70;99.90;;;;;;4961151;28;20035;-77
2022/09/19 04:43:50;;;;;;;13.07;3.58;;;8.70;99.90;;;;;;4960405;28;20054;-77
2022/09/19 04:46:20;;;;;;;21.52;3.10;;;8.70;99.90;;;;;;4938738;28;20062;-78
2022/09/19 04:48:47;;;;;;;12.95;2.53;;;8.60;99.90;;;;;;4958589;28;20033;-78
2022/09/19 04:51:12;;;;;;;20.17;2.78;;;8.70;99.90;;;;;;4947085;28;20822;-77
2022/09/19 04:53:38;;;;;;;15.15;3.10;;;8.70;99.90;;;;;;4960266;28;20037;-78
2022/09/19 04:56:04;;;;;;;13.75;3.95;;;8.70;99.90;;;;;;4946312;28;20343;-78
2022/09/19 04:58:29;;;;;;;14.05;2.50;;;8.70;99.90;;;;;;4967089;28;20039;-79
2022/09/19 05:00:55;;;;;;;24.30;3.53;;;8.70;99.90;;;;;;4960520;28;20373;-78
2022/09/19 05:03:25;;;;;;;17.55;3.47;;;8.70;99.90;;;;;;4952514;28;20033;-78
2022/09/19 05:05:51;;;;;;;20.75;4.93;;;8.70;99.90;;;;;;4947448;28;20094;-78
2022/09/19 05:08:28;;;;;;;8.07;2.35;;;8.70;99.90;;;;;;4928960;28;20027;-77
2022/09/19 05:10:58;;;;;;;20.17;3.00;;;8.70;99.90;;;;;;4945407;28;20065;-77
2022/09/19 05:13:24;;;;;;;13.68;2.88;;;8.70;99.90;;;;;;4974916;28;20395;-79
2022/09/19 05:15:51;;;;;;;20.67;3.45;;;8.70;99.90;;;;;;4948059;28;20471;-77
2022/09/19 05:18:21;;;;;;;17.65;3.63;;;8.60;99.90;;;;;;4962274;28;20055;-79
2022/09/19 05:20:47;;;;;;;14.27;3.67;;;8.70;99.90;;;;;;4961429;28;20033;-77
2022/09/19 05:23:14;;;;;;;11.05;2.10;;;8.70;99.90;;;;;;4929129;28;20035;-77
2022/09/19 05:25:39;;;;;;;17.02;2.85;;;8.70;99.90;;;;;;4947556;28;20090;-78
2022/09/19 05:28:06;;;;;;;11.43;2.53;;;8.80;99.90;;;;;;4944576;28;20035;-79
2022/09/19 05:30:32;;;;;;;12.18;2.22;;;8.70;99.90;;;;;;4963054;28;20065;-77
2022/09/19 05:32:59;;;;;;;12.48;3.17;;;8.80;99.90;;;;;;4942442;28;20035;-79
2022/09/19 05:35:25;;;;;;;7.18;2.33;;;8.80;99.90;;;;;;4948279;28;20034;-79
2022/09/19 05:37:51;;;;;;;12.10;2.58;;;8.80;99.90;;;;;;4947500;28;20069;-77
2022/09/19 05:40:18;;;;;;;17.38;3.25;;;8.80;99.90;;;;;;4959510;28;20487;-77
2022/09/19 05:42:46;;;;;;;10.85;3.17;;;8.80;99.90;;;;;;4957979;28;20039;-77
2022/09/19 05:45:12;;;;;;;9.02;2.33;;;8.80;99.90;;;;;;4945036;28;20039;-78
2022/09/19 05:47:39;;;;;;;15.23;3.42;;;8.90;99.90;;;;;;4926499;28;20089;-78
2022/09/19 05:50:10;;;;;;;17.80;3.75;;;8.90;99.90;;;;;;4957277;28;20039;-78
2022/09/19 05:55:25;;;;;;;12.40;3.42;;;8.90;99.90;;;;;;4961821;28;20126;-77
2022/09/19 05:57:51;;;;;;;16.48;3.13;;;8.90;99.90;;;;;;4933603;28;20038;-78
2022/09/19 06:00:18;;;;;;;10.05;1.58;;;8.90;99.90;;;;;;4960456;28;20487;-77
2022/09/19 06:02:43;;;;;;;16.70;3.00;;;9.00;99.90;;;;;;4957577;28;20102;-78
2022/09/19 06:05:09;;;;;;;18.83;3.72;;;9.00;99.90;;;;;;4929181;28;20622;-78
2022/09/19 06:07:34;;;;;;;17.45;3.05;;;8.90;99.90;;;;;;4960605;28;20026;-79
2022/09/19 06:10:00;;;;;;;14.75;2.63;;;8.90;99.90;;;;;;4931315;28;20086;-79
2022/09/19 06:12:26;;;;;;;14.00;2.72;;;9.00;99.90;;;;;;4950478;28;20037;-79
2022/09/19 06:14:51;;;;;;;18.75;3.67;;;9.10;99.90;;;;;;4942104;28;20035;-78
2022/09/19 06:17:17;;;;;;;21.30;4.40;;;9.00;99.90;;;;;;4958173;28;20098;-79
2022/09/19 06:19:42;;;;;;;11.85;2.88;;;9.00;99.90;;;;;;4941244;28;20046;-79
2022/09/19 06:22:08;;;;;;;13.75;3.22;;;9.00;99.90;;;;;;4948353;28;20655;-78
2022/09/19 06:24:34;;;;;;;20.95;4.18;;;9.00;99.90;;;;;;4962330;28;20486;-79
2022/09/19 06:26:59;;;;;;;9.32;2.53;;;9.00;99.90;;;;;;4956730;28;20039;-79
2022/09/19 06:29:25;;;;;;;11.80;2.60;;;9.00;99.90;;;;;;4957939;28;20147;-78
2022/09/19 06:31:51;;;;;;;20.77;3.60;;;9.10;99.90;;;;;;4957449;28;20034;-79
2022/09/19 06:34:17;;;;;;;12.50;3.00;;;9.10;99.90;;;;;;4962069;28;20085;-79
2022/09/19 06:36:44;;;;;;;15.48;3.45;;;9.20;99.90;;;;;;4956958;28;20039;-79
2022/09/19 06:39:10;;;;;;;7.38;2.30;;;9.10;99.90;;;;;;4955502;28;20463;-79
2022/09/19 06:41:35;;;;;;;12.43;2.85;;;9.10;99.90;;;;;;4946373;28;20041;-79
2022/09/19 06:44:02;;;;;;;13.10;2.25;;;9.20;99.90;;;;;;4960910;28;20027;-79
2022/09/19 06:46:27;;;;;;;23.27;3.92;;;9.30;99.90;;;;;;4961909;28;20172;-79
2022/09/19 06:48:53;;;;;;;16.40;3.28;;;9.20;99.90;;;;;;4957077;28;20038;-79
2022/09/19 06:51:19;;;;;;;11.52;2.38;;;9.30;99.90;;;;;;4946703;28;20041;-79
2022/09/19 06:53:47;;;;;;;17.08;3.65;;;9.40;99.90;;;;;;4926448;28;20646;-79
2022/09/19 06:56:13;;;;;;;12.95;2.40;;;9.40;99.90;;;;;;4943523;28;20253;-79
2022/09/19 06:58:45;;;;;;;14.77;2.63;;;9.40;99.90;;;;;;4944196;28;20035;-79
2022/09/19 07:01:11;;;;;;;13.32;2.50;;;9.40;99.90;;;;;;4954274;28;20035;-78
2022/09/19 07:03:39;;;;;;;13.65;2.97;;;9.50;99.90;;;;;;4959577;28;20068;-79
2022/09/19 07:06:05;;;;;;;16.58;3.95;;;9.50;99.90;;;;;;4961145;28;20042;-79
2022/09/19 07:08:31;;;;;;;14.80;3.67;;;9.60;99.90;;;;;;4928406;28;20039;-79
2022/09/19 07:10:56;;;;;;;23.17;4.15;;;9.70;99.90;;;;;;4945744;28;20538;-79
2022/09/19 07:13:22;;;;;;;12.48;2.42;;;9.80;99.90;;;;;;4940837;28;20067;-78
2022/09/19 07:15:48;;;;;;;13.55;3.17;;;9.80;99.90;;;;;;4942416;28;20214;-79
2022/09/19 07:18:14;;;;;;;22.27;5.18;;;9.90;99.90;;;;;;4960113;28;20062;-79
2022/09/19 07:20:40;;;;;;;17.38;3.28;;;10.00;99.90;;;;;;4959378;28;20097;-79
2022/09/19 07:23:10;;;;;;;17.08;4.05;;;10.00;99.90;;;;;;4943410;28;20033;-79
2022/09/19 07:25:37;;;;;;;16.95;3.10;;;10.00;99.90;;;;;;4941986;28;20033;-79
2022/09/19 07:28:05;;;;;;;14.75;3.03;;;10.20;99.90;;;;;;4948108;28;20513;-79
2022/09/19 07:30:32;;;;;;;16.15;4.38;;;10.30;99.90;;;;;;4947622;28;20154;-79
2022/09/19 07:32:58;;;;;;;19.02;2.95;;;10.40;99.90;;;;;;4924186;28;20031;-79
2022/09/19 07:35:27;;;;;;;9.48;2.35;;;10.60;99.90;;;;;;4962662;28;20050;-79
2022/09/19 07:37:54;;;;;;;19.67;2.88;;;10.80;99.90;;;;;;4957423;28;20073;-79
2022/09/19 07:40:20;;;;;;;13.75;2.47;;;10.90;99.90;;;;;;4956286;28;20141;-79
2022/09/19 07:42:45;;;;;;;13.40;2.50;;;11.10;99.90;;;;;;4922682;28;20539;-78
2022/09/19 07:45:11;;;;;;;13.43;2.63;;;11.30;99.90;;;;;;4960473;28;20066;-79
2022/09/19 07:47:49;;;;;;;15.30;2.72;;;11.40;99.90;;;;;;4926995;28;20121;-79
2022/09/19 07:50:16;;;;;;;20.50;2.20;;;11.60;99.90;;;;;;4932686;28;20054;-78
2022/09/19 07:52:45;;;;;;;11.48;1.88;;;11.80;99.90;;;;;;4930161;28;20035;-79
2022/09/19 07:55:11;;;;;;;12.82;1.95;;;11.80;99.90;;;;;;4957376;28;20138;-79
2022/09/19 07:57:37;;;;;;;19.00;2.60;;;11.90;99.90;;;;;;4941173;28;20830;-79
2022/09/19 08:00:04;;;;;;;13.13;1.98;;;12.00;99.90;;;;;;4939417;28;20031;-79
2022/09/19 08:02:29;;;;;;;9.05;1.83;;;12.10;99.90;;;;;;4942331;28;20030;-78
2022/09/19 08:04:55;;;;;;;5.72;1.35;;;12.10;99.90;;;;;;4921024;28;20027;-78
2022/09/19 08:07:20;;;;;;;24.88;2.25;;;12.10;99.90;;;;;;4961934;28;20019;-79
2022/09/19 08:09:46;;;;;;;12.48;2.20;;;12.20;99.90;;;;;;4923417;28;20026;-79
2022/09/19 08:12:12;;;;;;;9.75;1.63;;;12.10;99.90;;;;;;4958534;28;20082;-78
2022/09/19 08:14:38;;;;;;;11.80;2.40;;;12.10;99.90;;;;;;4956540;28;20043;-79
2022/09/19 08:17:04;;;;;;;16.50;2.65;;;12.20;99.90;;;;;;4953025;28;20035;-78
2022/09/19 08:19:29;;;;;;;13.40;1.90;;;12.20;99.90;;;;;;4950863;28;20399;-79
2022/09/19 08:21:56;;;;;;;8.20;1.38;;;12.30;99.90;;;;;;4927051;28;20491;-78
2022/09/19 08:24:22;;;;;;;11.90;1.58;;;12.30;99.90;;;;;;4956685;28;20062;-79
2022/09/19 08:26:48;;;;;;;12.93;2.03;;;12.50;99.90;;;;;;4942413;28;20749;-79
2022/09/19 08:29:13;;;;;;;12.05;1.95;;;12.50;99.90;;;;;;4936627;28;20055;-79
2022/09/19 08:31:39;;;;;;;12.43;1.58;;;12.50;99.90;;;;;;4960973;28;20049;-79
2022/09/19 08:34:04;;;;;;;7.20;1.92;;;12.60;99.90;;;;;;4932998;28;20038;-79
2022/09/19 08:36:30;;;;;;;17.38;1.98;;;12.70;99.90;;;;;;4964020;28;20050;-79
2022/09/19 08:38:55;;;;;;;7.20;1.33;;;12.70;99.90;;;;;;4951620;28;20117;-79
2022/09/19 08:41:25;;;;;;;10.90;1.40;;;12.90;99.90;;;;;;4947989;28;20039;-78
2022/09/19 08:43:57;;;;;;;9.43;1.92;;;13.10;99.90;;;;;;4963306;28;20042;-78
2022/09/19 08:46:36;;;;;;;11.50;1.40;;;13.30;99.90;;;;;;4963549;28;20597;-78
2022/09/19 08:49:20;;;;;;;11.50;1.30;;;13.30;99.90;;;;;;4963089;28;20034;-78
2022/09/19 08:51:56;;;;;;;4.72;1.63;;;13.30;99.90;;;;;;4962368;28;20447;-78
2022/09/19 08:54:25;;;;;;;13.73;1.38;;;13.30;99.90;;;;;;4946720;28;20035;-78
2022/09/19 08:56:51;;;;;;;13.85;1.85;;;13.70;99.90;;;;;;4961031;28;20063;-78
2022/09/19 08:59:20;;;;;;;13.93;1.33;;;13.70;99.90;;;;;;4959343;28;20058;-78
2022/09/19 09:01:46;;;;;;;11.05;1.67;;;13.70;99.90;;;;;;4947904;28;20129;-78
2022/09/19 09:04:30;;;;;;;16.48;2.42;;;13.70;99.90;;;;;;4947535;28;20023;-78
2022/09/19 09:07:33;;;;;;;6.05;1.10;;;13.80;99.90;;;;;;4962870;28;20376;-78
2022/09/19 09:10:30;;;;;;;12.73;1.75;;;14.20;99.90;;;;;;4964400;28;20071;-77
2022/09/19 09:13:01;;;;;;;8.73;1.92;;;14.30;99.90;;;;;;4960328;28;20058;-78
2022/09/19 09:15:43;;;;;;;11.40;3.25;;;14.30;99.90;;;;;;4948767;28;20512;-78
2022/09/19 09:18:44;;;;;;;9.52;2.13;;;14.50;99.90;;;;;;4948269;28;20035;-78
2022/09/19 09:21:47;;;;;;;6.95;1.58;;;14.50;99.90;;;;;;4925156;28;20039;-78
2022/09/19 09:24:24;;;;;;;5.55;1.40;;;14.70;99.90;;;;;;4958066;28;20031;-78
2022/09/19 09:26:51;;;;;;;11.95;1.20;;;15.20;99.90;;;;;;4954516;28;20058;-78
2022/09/19 09:29:27;;;;;;;11.60;1.75;;;15.30;99.90;;;;;;4938445;28;20035;-78
2022/09/19 09:32:05;;;;;;;7.00;1.42;;;15.30;99.90;;;;;;4956919;28;20039;-79
2022/09/19 09:34:40;;;;;;;10.18;1.63;;;15.50;99.90;;;;;;4956971;28;20027;-79
2022/09/19 09:37:26;;;;;;;8.35;1.83;;;15.80;99.90;;;;;;4953171;28;20396;-78
2022/09/19 09:41:45;;;;;;;14.88;1.83;;;15.70;99.90;;;;;;4943469;28;20031;-78
2022/09/19 09:43:06;;;;;;;9.30;1.55;;;15.80;99.90;;;;;;4939691;28;22895;-78
2022/09/19 09:45:35;;;;;;;4.85;0.88;;;16.00;99.90;;;;;;4967129;28;20038;-78
2022/09/19 09:48:26;;;;;;;10.43;1.55;;;16.30;99.90;;;;;;4945421;28;20093;-78
2022/09/19 09:51:25;;;;;;;20.48;2.20;;;16.40;99.90;;;;;;4933588;28;20053;-78
2022/09/19 09:57:20;;;;;;;11.27;1.90;;;16.70;99.90;;;;;;4968503;28;20468;-78
2022/09/19 10:06:00;;;;;;;17.70;2.33;;;17.10;99.90;;;;;;4949129;28;20078;-78
2022/09/19 10:08:34;;;;;;;9.18;2.05;;;17.10;99.90;;;;;;4937332;28;20038;-78
2022/09/19 10:11:20;;;;;;;8.00;2.17;;;17.20;99.90;;;;;;4915638;28;20043;-78
2022/09/19 10:13:56;;;;;;;6.93;1.40;;;17.20;99.90;;;;;;4929724;29;20491;-79
2022/09/19 10:16:22;;;;;;;;;;;17.20;99.90;;;;;;4942973;28;20031;-79
2022/09/19 10:18:51;;;;;;;9.13;1.33;;;17.30;99.90;;;;;;4931332;28;20359;-79
2022/09/19 10:21:17;;;;;;;8.57;1.13;;;17.40;99.90;;;;;;4940775;28;20035;-79
2022/09/19 10:23:45;;;;;;;6.72;0.93;;;17.50;99.90;;;;;;4942952;28;20038;-79
2022/09/19 10:26:15;;;;;;;9.10;1.50;;;17.50;99.90;;;;;;4952724;28;20067;-79
2022/09/19 10:28:52;;;;;;;13.70;1.45;;;17.50;99.90;;;;;;4921186;28;20042;-79
2022/09/19 10:31:34;;;;;;;8.68;1.00;;;17.60;99.90;;;;;;4943480;28;20042;-79
2022/09/19 10:34:04;;;;;;;6.07;0.90;;;17.60;99.90;;;;;;4925716;28;20043;-79
2022/09/19 10:36:32;;;;;;;7.07;1.23;;;17.60;99.90;;;;;;4940707;28;20036;-79
2022/09/19 10:38:58;;;;;;;8.75;0.93;;;17.60;99.90;;;;;;4926321;28;20185;-80
2022/09/19 10:41:28;;;;;;;4.72;1.20;;;17.70;99.90;;;;;;4926375;28;20069;-80
2022/09/19 10:43:56;;;;;;;8.68;1.30;;;17.70;99.90;;;;;;4924459;28;20047;-80
2022/09/19 10:46:31;;;;;;;7.40;1.08;;;17.80;99.90;;;;;;4958905;28;20027;-80
2022/09/19 10:48:58;;;;;;;10.52;1.20;;;17.80;99.90;;;;;;4963434;28;20039;-80
2022/09/19 10:51:44;;;;;;;3.55;1.20;;;18.00;99.90;;;;;;4926565;28;20066;-80
2022/09/19 10:54:11;;;;;;;6.82;1.17;;;18.10;99.90;;;;;;4953955;28;20048;-80
2022/09/19 10:56:41;;;;;;;3.83;1.10;;;18.10;99.90;;;;;;4943607;28;20031;-80
2022/09/19 10:59:18;;;;;;;5.43;0.90;;;18.30;99.90;;;;;;4943359;28;20126;-81
2022/09/19 11:01:44;;;;;;;5.35;1.20;;;18.40;99.90;;;;;;4957194;28;20398;-80
2022/09/19 11:04:25;;;;;;;7.35;1.30;;;18.50;99.90;;;;;;4940720;28;20043;-81
2022/09/19 11:07:02;;;;;;;4.18;0.85;;;18.60;99.90;;;;;;4957555;28;20049;-81
2022/09/19 11:09:37;;;;;;;6.53;1.40;;;18.70;99.90;;;;;;4945877;28;20117;-81
2022/09/19 11:12:10;;;;;;;5.32;1.23;;;18.80;99.90;;;;;;4940828;28;20118;-81
2022/09/19 11:14:36;;;;;;;5.65;1.25;;;18.80;99.90;;;;;;4948519;28;20602;-81
2022/09/19 11:17:23;;;;;;;7.82;1.13;;;18.70;99.90;;;;;;4927408;28;20035;-82
2022/09/19 11:20:14;;;;;;;8.27;1.45;;;18.90;99.90;;;;;;4958493;28;20034;-82
2022/09/19 11:22:44;;;;;;;4.88;1.10;;;19.10;99.90;;;;;;4956520;28;20043;-81
2022/09/19 11:25:28;;;;;;;8.98;1.50;;;19.00;99.90;;;;;;4957203;28;20114;-82
2022/09/19 11:28:21;;;;;;;7.30;1.58;;;19.10;99.90;;;;;;4958333;28;20491;-82
2022/09/19 11:31:05;;;;;;;8.63;1.13;;;19.10;99.90;;;;;;4958155;28;20118;-82
2022/09/19 11:33:56;;;;;;;4.82;0.88;;;19.00;99.90;;;;;;4942021;28;20059;-82
2022/09/19 11:36:44;;;;;;;6.43;1.23;;;19.00;99.90;;;;;;4958828;28;20041;-82
2022/09/19 11:39:30;;;;;;;6.40;1.30;;;19.10;99.90;;;;;;4958954;28;20039;-82
2022/09/19 11:42:05;;;;;;;17.55;2.53;;;19.20;99.90;;;;;;4945439;28;20038;-81
2022/09/19 11:45:05;;;;;;;8.57;1.42;;;18.80;99.90;;;;;;4956108;28;20031;-81
2022/09/19 11:47:53;;;;;;;10.25;1.60;;;18.50;99.90;;;;;;4930297;28;20047;-81
2022/09/19 11:50:40;;;;;;;8.60;1.20;;;18.20;99.90;;;;;;4959911;28;20069;-81
2022/09/19 11:53:52;;;;;;;4.68;1.05;;;18.00;99.90;;;;;;4974936;28;20062;-82
2022/09/19 11:56:48;;;;;;;5.68;0.90;;;17.50;99.90;;;;;;4942841;28;20142;-80
2022/09/19 11:59:30;;;;;;;4.80;1.55;;;17.20;99.90;;;;;;4962191;28;20067;-81
2022/09/19 12:02:21;;;;;;;3.58;0.82;;;16.90;99.90;;;;;;4957720;28;20039;-81
2022/09/19 12:05:17;;;;;;;2.25;1.42;;;16.60;99.90;;;;;;4616817;28;10001019;-81
2022/09/19 12:07:54;;;;;;;4.05;0.80;;;16.50;99.90;;;;;;4957826;28;20566;-82
2022/09/19 12:10:43;;;;;;;5.10;1.00;;;16.30;99.90;;;;;;4963352;28;20125;-82
2022/09/19 12:13:14;;;;;;;2.60;0.60;;;16.20;99.90;;;;;;4956943;28;20032;-81
2022/09/19 12:15:43;;;;;;;1.95;0.50;;;16.10;99.90;;;;;;4944575;28;20063;-82
2022/09/19 12:18:52;;;;;;;2.70;0.60;;;15.90;99.90;;;;;;4939367;28;20044;-81
2022/09/19 12:21:19;;;;;;;4.15;0.70;;;15.80;99.90;;;;;;4962086;28;20399;-82
2022/09/19 12:27:03;;;;;;;1.30;0.40;;;16.30;99.90;;;;;;4962728;28;20234;-82
2022/09/19 12:29:57;;;;;;;3.08;0.45;;;16.10;99.90;;;;;;4958385;28;20055;-81
2022/09/19 12:32:47;;;;;;;4.15;0.95;;;16.10;99.90;;;;;;4973135;28;20038;-82
2022/09/19 12:35:17;;;;;;;3.72;0.65;;;16.00;99.90;;;;;;4960207;28;20046;-82
2022/09/19 12:37:54;;;;;;;7.30;0.50;;;16.30;99.90;;;;;;4962519;28;20617;-82
2022/09/19 12:40:30;;;;;;;3.38;0.50;;;16.50;99.90;;;;;;4948294;28;20050;-81
2022/09/19 12:43:32;;;;;;;1.23;0.60;;;16.30;99.90;;;;;;4947781;28;20027;-82
2022/09/19 12:46:27;;;;;;;2.35;0.50;;;16.40;99.90;;;;;;4959904;28;20039;-81
2022/09/19 12:49:03;;;;;;;3.42;0.50;;;16.70;99.90;;;;;;4946068;28;20042;-82
2022/09/19 12:51:53;;;;;;;3.95;0.60;;;16.80;99.90;;;;;;4952428;28;20121;-81
2022/09/19 12:54:43;;;;;;;2.25;0.63;;;17.00;99.90;;;;;;4940217;28;20407;-82
2022/09/19 12:57:24;;;;;;;4.95;0.95;;;16.80;99.90;;;;;;4966776;28;20118;-82
2022/09/19 12:59:51;;;;;;;1.67;0.70;;;16.80;99.90;;;;;;4970263;28;20031;-82
2022/09/19 13:02:29;;;;;;;3.13;0.65;;;16.80;99.90;;;;;;4939520;28;20035;-81
2022/09/19 13:05:20;;;;;;;8.02;0.82;;;16.90;99.90;;;;;;4959914;28;20126;-82
2022/09/19 13:07:51;;;;;;;4.30;0.47;;;17.50;99.90;;;;;;4950353;28;20045;-81
2022/09/19 13:10:55;;;;;;;6.07;0.90;;;17.20;99.90;;;;;;4943791;28;20130;-81
2022/09/19 13:13:28;;;;;;;3.28;0.80;;;16.90;99.90;;;;;;4950676;28;20126;-81
2022/09/19 13:15:57;;;;;;;3.42;0.70;;;17.20;99.90;;;;;;4959975;28;20042;-81
2022/09/19 13:23:57;;;;;;;2.05;0.75;;;17.60;99.90;;;;;;4963338;28;20085;-81
2022/09/19 13:26:43;;;;;;;5.15;0.90;;;17.70;99.90;;;;;;4962973;28;20026;-81
2022/09/19 13:29:17;;;;;;;5.82;2.38;;;17.40;99.90;;;;;;4971047;28;20041;-81
2022/09/19 13:31:49;;;;;;;4.60;0.90;;;17.30;99.90;;;;;;4957590;28;20062;-81
2022/09/19 13:35:03;;;;;;;1.10;0.52;;;17.50;99.90;;;;;;4956788;28;20114;-81
2022/09/19 13:37:29;;;;;;;6.75;0.95;;;17.50;99.90;;;;;;4932608;28;20019;-81
2022/09/19 13:40:14;;;;;;;4.53;1.00;;;17.30;99.90;;;;;;4940990;28;20716;-81